Time;durP1;ratioP1;P1;durP2;ratioP2;P2;SDS_P1;SDS_P2;PMS_P1;PMS_P2;Temp;Humidity;BMP_temperature;BMP_pressure;BME280_temperature;BME280_humidity;BME280_pressure;Samples;Min_cycle;Max_cycle;Signal;HPM_P1;HPM_P2
2023/01/02 00:00:22;;;;;;;8.63;8.33;;;22.40;70.60;;;;;;5053159;28;20553;-54
2023/01/02 00:02:49;;;;;;;8.00;7.80;;;22.40;70.70;;;;;;5053338;28;20480;-55
2023/01/02 00:05:16;;;;;;;7.80;7.60;;;22.40;70.80;;;;;;5053016;28;20535;-56
2023/01/02 00:07:43;;;;;;;8.70;8.40;;;22.40;70.80;;;;;;5053359;28;20444;-54
2023/01/02 00:10:10;;;;;;;9.50;9.03;;;22.40;71.00;;;;;;5053033;28;20464;-55
2023/01/02 00:12:37;;;;;;;8.83;8.50;;;22.40;71.10;;;;;;5052974;28;20451;-52
2023/01/02 00:15:06;;;;;;;8.30;8.00;;;22.40;71.20;;;;;;5053087;28;20535;-55
2023/01/02 00:17:33;;;;;;;8.70;8.30;;;22.40;71.20;;;;;;5053270;28;20444;-55
2023/01/02 00:20:00;;;;;;;9.90;9.50;;;22.30;71.20;;;;;;5052532;28;20555;-56
2023/01/02 00:22:27;;;;;;;8.37;8.13;;;22.40;71.30;;;;;;5052761;28;20840;-54
2023/01/02 00:24:54;;;;;;;8.67;8.37;;;22.30;71.40;;;;;;5053111;28;20448;-56
2023/01/02 00:27:20;;;;;;;8.00;7.80;;;22.30;71.50;;;;;;5052808;28;20452;-56
2023/01/02 00:29:47;;;;;;;8.93;8.57;;;22.30;71.50;;;;;;5052815;28;20526;-52
2023/01/02 00:32:16;;;;;;;8.40;8.10;;;22.30;71.60;;;;;;5053120;28;20539;-54
2023/01/02 00:34:43;;;;;;;9.70;9.30;;;22.30;71.70;;;;;;5052896;28;20480;-53
2023/01/02 00:37:09;;;;;;;8.43;8.20;;;22.30;71.70;;;;;;5053083;28;20444;-52
2023/01/02 00:39:36;;;;;;;9.07;8.77;;;22.30;71.90;;;;;;5052670;28;20472;-54
2023/01/02 00:42:03;;;;;;;8.97;8.67;;;22.30;72.00;;;;;;5052365;28;20539;-52
2023/01/02 00:44:30;;;;;;;8.27;8.07;;;22.30;72.20;;;;;;5052156;28;20535;-55
2023/01/02 00:46:57;;;;;;;8.00;7.70;;;22.30;72.10;;;;;;5052704;28;20440;-54
2023/01/02 00:49:25;;;;;;;8.10;7.80;;;22.30;72.20;;;;;;5052266;28;20468;-55
2023/01/02 00:51:52;;;;;;;7.73;7.50;;;22.30;72.20;;;;;;5052510;28;20517;-53
2023/01/02 00:54:19;;;;;;;8.13;7.90;;;22.30;72.30;;;;;;5052377;28;20448;-54
2023/01/02 00:56:46;;;;;;;9.20;8.80;;;22.20;72.30;;;;;;5052557;28;20537;-53
2023/01/02 00:59:12;;;;;;;9.17;8.70;;;22.30;72.40;;;;;;5052156;28;20834;-56
2023/01/02 01:01:39;;;;;;;8.87;8.57;;;22.20;72.40;;;;;;5052015;28;20458;-52
2023/01/02 01:04:06;;;;;;;8.80;8.50;;;22.20;72.60;;;;;;5052193;28;20484;-52
2023/01/02 01:06:35;;;;;;;8.53;8.33;;;22.20;72.60;;;;;;5052269;28;20452;-56
2023/01/02 01:09:01;;;;;;;8.37;8.13;;;22.20;72.70;;;;;;5051876;28;20612;-53
2023/01/02 01:11:28;;;;;;;9.40;9.00;;;22.20;72.80;;;;;;5051991;28;20535;-53
2023/01/02 01:13:55;;;;;;;8.57;8.27;;;22.20;72.70;;;;;;5052152;28;20440;-57
2023/01/02 01:16:22;;;;;;;8.60;8.30;;;22.20;72.70;;;;;;5051717;28;21028;-55
2023/01/02 01:18:49;;;;;;;8.47;8.07;;;22.20;72.80;;;;;;5051685;28;20507;-53
2023/01/02 01:21:17;;;;;;;8.00;7.80;;;22.20;72.90;;;;;;5052001;28;20446;-53
2023/01/02 01:23:50;;;;;;;8.33;8.03;;;22.10;72.90;;;;;;5051633;28;20488;-53
2023/01/02 01:26:17;;;;;;;8.80;8.40;;;22.10;73.00;;;;;;5051925;28;20978;-54
2023/01/02 01:28:44;;;;;;;8.97;8.57;;;22.10;73.10;;;;;;5051497;28;20471;-59
2023/01/02 01:31:12;;;;;;;8.73;8.33;;;22.10;73.20;;;;;;5051750;28;21041;-54
2023/01/02 01:33:40;;;;;;;8.70;8.40;;;22.20;73.30;;;;;;5051826;28;20436;-52
2023/01/02 01:36:09;;;;;;;8.53;8.33;;;22.20;73.30;;;;;;5051738;28;20450;-54
2023/01/02 01:38:36;;;;;;;9.03;8.73;;;22.10;73.30;;;;;;5051623;28;20470;-53
2023/01/02 01:41:05;;;;;;;8.63;8.43;;;22.10;73.30;;;;;;5051520;28;20538;-55
2023/01/02 01:43:42;;;;;;;8.23;8.03;;;22.10;73.30;;;;;;5051422;28;20648;-53
2023/01/02 01:46:18;;;;;;;8.47;8.27;;;22.10;73.30;;;;;;5051696;28;20527;-53
2023/01/02 01:48:46;;;;;;;8.90;8.60;;;22.10;73.30;;;;;;5051486;28;20472;-53
2023/01/02 01:51:14;;;;;;;8.70;8.40;;;22.10;73.30;;;;;;5051601;28;20828;-54
2023/01/02 01:53:42;;;;;;;8.03;7.83;;;22.10;73.40;;;;;;5051430;28;20826;-56
2023/01/02 01:56:12;;;;;;;9.00;8.70;;;22.10;73.40;;;;;;5051691;28;20444;-54
2023/01/02 01:58:44;;;;;;;8.73;8.43;;;22.10;73.50;;;;;;5050902;28;20470;-54
2023/01/02 02:01:12;;;;;;;8.87;8.57;;;22.10;73.50;;;;;;5051442;28;20794;-54
2023/01/02 02:03:41;;;;;;;8.53;8.23;;;22.10;73.60;;;;;;5051366;28;20479;-52
2023/01/02 02:06:08;;;;;;;8.60;8.30;;;22.10;73.50;;;;;;5051149;28;20444;-52
2023/01/02 02:08:40;;;;;;;8.50;8.20;;;22.10;73.60;;;;;;5051159;28;20479;-54
2023/01/02 02:11:08;;;;;;;8.10;7.83;;;22.10;73.60;;;;;;5051233;28;20444;-54
2023/01/02 02:13:36;;;;;;;8.40;8.13;;;22.10;73.60;;;;;;5050977;28;20926;-56
2023/01/02 02:16:13;;;;;;;9.10;8.80;;;22.10;73.70;;;;;;5051334;28;20440;-53
2023/01/02 02:18:57;;;;;;;8.60;8.30;;;22.10;73.70;;;;;;5051157;28;20503;-54
2023/01/02 02:21:41;;;;;;;9.03;8.73;;;22.10;73.70;;;;;;5050549;28;20444;-53
2023/01/02 02:24:36;;;;;;;9.03;8.67;;;22.00;73.70;;;;;;5050910;28;20483;-54
2023/01/02 02:27:30;;;;;;;8.20;8.00;;;22.10;73.80;;;;;;5051090;28;20448;-52
2023/01/02 02:30:14;;;;;;;7.97;7.77;;;22.10;73.90;;;;;;5043447;28;20476;-54
2023/01/02 02:33:09;;;;;;;8.77;8.47;;;22.00;73.80;;;;;;5051190;28;20446;-54
2023/01/02 02:35:48;;;;;;;9.53;9.03;;;22.00;73.90;;;;;;5051216;28;20787;-52
2023/01/02 02:38:20;;;;;;;8.23;7.93;;;22.00;73.90;;;;;;5051297;28;20479;-53
2023/01/02 02:40:54;;;;;;;8.17;7.97;;;22.00;74.00;;;;;;5050660;28;20451;-53
2023/01/02 02:43:30;;;;;;;8.17;7.87;;;22.00;73.90;;;;;;5051049;28;20981;-56
2023/01/02 02:46:06;;;;;;;8.20;7.90;;;22.00;73.90;;;;;;5051150;28;20450;-54
2023/01/02 02:48:42;;;;;;;8.03;7.83;;;22.00;74.10;;;;;;5050986;28;20819;-56
2023/01/02 02:51:14;;;;;;;8.30;8.00;;;22.00;74.10;;;;;;5050941;28;20926;-55
2023/01/02 02:53:43;;;;;;;7.50;7.30;;;22.00;74.10;;;;;;5051068;28;20480;-54
2023/01/02 02:56:11;;;;;;;8.20;8.00;;;22.00;74.00;;;;;;5050666;28;20448;-53
2023/01/02 02:58:40;;;;;;;7.87;7.67;;;22.00;74.10;;;;;;5051033;28;20464;-54
2023/01/02 03:01:15;;;;;;;7.93;7.73;;;22.00;74.80;;;;;;5050738;28;20450;-54
2023/01/02 03:03:42;;;;;;;8.10;7.80;;;22.00;74.10;;;;;;5050822;28;21000;-54
2023/01/02 03:06:21;;;;;;;7.90;7.60;;;22.00;74.10;;;;;;5052308;28;20448;-55
2023/01/02 03:09:03;;;;;;;7.70;7.50;;;22.00;74.10;;;;;;5054325;28;20551;-53
2023/01/02 03:11:42;;;;;;;8.40;8.10;;;22.00;74.10;;;;;;5054174;28;20448;-54
2023/01/02 03:14:18;;;;;;;8.30;7.90;;;22.00;74.00;;;;;;5054504;28;20432;-53
2023/01/02 03:16:51;;;;;;;7.73;7.50;;;22.00;74.00;;;;;;5054413;28;20450;-53
2023/01/02 03:19:27;;;;;;;8.67;8.47;;;22.00;73.90;;;;;;5054040;28;20559;-56
2023/01/02 03:21:59;;;;;;;8.90;8.50;;;22.00;73.90;;;;;;5054254;28;20451;-53
2023/01/02 03:24:27;;;;;;;8.60;8.30;;;22.00;73.80;;;;;;5054130;28;20484;-53
2023/01/02 03:26:58;;;;;;;8.77;8.37;;;22.00;73.80;;;;;;5053996;28;20484;-54
2023/01/02 03:29:31;;;;;;;8.13;7.83;;;22.00;73.90;;;;;;5053848;28;20467;-53
2023/01/02 03:32:03;;;;;;;8.00;7.80;;;22.00;73.90;;;;;;5054072;28;20929;-54
2023/01/02 03:34:34;;;;;;;8.10;7.90;;;22.00;74.00;;;;;;5054060;28;20440;-54
2023/01/02 03:37:06;;;;;;;8.43;8.23;;;22.00;74.10;;;;;;5053763;28;20808;-56
2023/01/02 03:39:38;;;;;;;8.90;8.60;;;22.00;74.20;;;;;;5053641;28;20470;-56
2023/01/02 03:42:10;;;;;;;8.57;8.27;;;22.00;74.30;;;;;;5054062;28;20444;-52
2023/01/02 03:44:42;;;;;;;8.83;8.53;;;22.00;74.40;;;;;;5053494;28;20472;-53
2023/01/02 03:47:25;;;;;;;8.20;8.00;;;22.00;74.40;;;;;;5053787;28;20454;-54
2023/01/02 03:49:56;;;;;;;8.87;8.57;;;22.00;75.20;;;;;;5053192;28;20489;-53
2023/01/02 03:52:23;;;;;;;8.20;8.00;;;22.00;74.40;;;;;;5053397;28;20450;-54
2023/01/02 03:54:51;;;;;;;8.17;7.87;;;21.90;74.30;;;;;;5053693;28;20523;-51
2023/01/02 03:57:27;;;;;;;8.30;8.10;;;21.90;74.40;;;;;;5053578;28;20451;-54
2023/01/02 04:00:00;;;;;;;8.70;8.30;;;21.90;74.30;;;;;;5052695;28;20467;-53
2023/01/02 04:02:36;;;;;;;8.53;8.33;;;21.90;74.40;;;;;;5053622;28;20971;-54
2023/01/02 04:05:12;;;;;;;8.23;8.03;;;21.90;74.30;;;;;;5053412;28;20479;-53
2023/01/02 04:07:47;;;;;;;8.40;8.20;;;21.90;74.40;;;;;;5053231;28;20455;-52
2023/01/02 04:10:15;;;;;;;8.10;7.90;;;21.90;74.60;;;;;;5053247;28;20796;-53
2023/01/02 04:12:47;;;;;;;9.17;8.70;;;21.90;74.70;;;;;;5053233;28;20448;-52
2023/01/02 04:15:17;;;;;;;8.27;8.07;;;21.90;74.70;;;;;;5053061;28;20809;-57
2023/01/02 04:17:49;;;;;;;8.17;7.97;;;22.00;74.70;;;;;;5052114;28;20444;-56
2023/01/02 04:20:20;;;;;;;9.00;8.70;;;22.00;74.60;;;;;;5052764;28;20476;-53
2023/01/02 04:22:52;;;;;;;8.73;8.53;;;22.00;74.50;;;;;;5053130;28;20451;-52
2023/01/02 04:25:20;;;;;;;8.37;8.17;;;22.00;74.30;;;;;;5052799;28;20479;-51
2023/01/02 04:27:54;;;;;;;8.73;8.50;;;22.10;74.40;;;;;;5052990;28;20814;-53
2023/01/02 04:30:21;;;;;;;8.47;8.17;;;22.10;74.40;;;;;;5052633;28;20474;-57
2023/01/02 04:32:50;;;;;;;8.40;8.10;;;22.10;74.30;;;;;;5051583;28;20444;-52
2023/01/02 04:35:19;;;;;;;8.50;8.20;;;22.10;74.30;;;;;;5052827;28;20436;-54
2023/01/02 04:37:46;;;;;;;8.80;8.60;;;22.10;74.10;;;;;;5052853;28;20946;-52
2023/01/02 04:40:19;;;;;;;9.13;8.67;;;22.10;74.00;;;;;;5052312;28;21037;-52
2023/01/02 04:42:46;;;;;;;8.37;8.17;;;22.20;74.10;;;;;;5052748;28;20456;-52
2023/01/02 04:45:13;;;;;;;9.10;8.70;;;22.10;74.00;;;;;;5052665;28;20579;-55
2023/01/02 04:47:40;;;;;;;9.73;9.43;;;22.20;74.10;;;;;;5052308;28;20476;-55
2023/01/02 04:50:10;;;;;;;9.27;8.97;;;22.20;74.10;;;;;;5052176;28;20471;-56
2023/01/02 04:52:37;;;;;;;9.20;9.00;;;22.20;74.00;;;;;;5052481;28;20451;-56
2023/01/02 04:55:06;;;;;;;10.40;10.10;;;22.20;73.90;;;;;;5052461;28;20535;-55
2023/01/02 04:57:33;;;;;;;9.00;8.73;;;22.20;74.00;;;;;;5052507;28;20531;-54
2023/01/02 05:00:00;;;;;;;9.03;8.83;;;22.20;74.00;;;;;;5052177;28;20916;-53
2023/01/02 05:02:27;;;;;;;9.40;9.10;;;22.20;74.00;;;;;;5052285;28;21009;-55
2023/01/02 05:04:54;;;;;;;9.27;9.03;;;22.10;73.90;;;;;;5051929;28;20484;-51
2023/01/02 05:07:23;;;;;;;9.37;9.17;;;22.20;74.10;;;;;;5052032;28;20878;-56
2023/01/02 05:09:49;;;;;;;9.87;9.57;;;22.20;74.00;;;;;;5051873;28;20467;-54
2023/01/02 05:12:16;;;;;;;10.30;9.70;;;22.20;73.90;;;;;;5052241;28;20444;-56
2023/01/02 05:14:43;;;;;;;9.87;9.57;;;22.20;73.80;;;;;;5052219;28;21136;-52
2023/01/02 05:17:10;;;;;;;9.80;9.60;;;22.20;73.60;;;;;;5051918;28;20442;-53
2023/01/02 05:19:37;;;;;;;9.90;9.60;;;22.20;73.60;;;;;;5051943;28;20583;-57
2023/01/02 05:24:49;;;;;;;10.27;9.97;;;22.20;73.50;;;;;;5052013;28;20474;-54
2023/01/02 05:27:16;;;;;;;10.27;10.03;;;22.30;73.50;;;;;;5051946;28;20534;-56
2023/01/02 05:29:43;;;;;;;10.30;9.80;;;22.30;73.60;;;;;;5051236;28;20598;-55
2023/01/02 05:32:10;;;;;;;10.77;10.27;;;22.30;73.50;;;;;;5051641;28;20546;-55
2023/01/02 05:34:36;;;;;;;10.00;9.70;;;22.30;73.60;;;;;;5051883;28;20897;-56
2023/01/02 05:37:03;;;;;;;10.30;10.00;;;22.30;73.50;;;;;;5051811;28;20447;-55
2023/01/02 05:39:30;;;;;;;9.90;9.60;;;22.30;73.50;;;;;;5051131;28;20921;-54
2023/01/02 05:41:58;;;;;;;10.33;10.03;;;22.20;73.50;;;;;;5051766;28;20538;-53
2023/01/02 05:44:25;;;;;;;9.77;9.47;;;22.30;73.40;;;;;;5051566;28;20571;-56
2023/01/02 05:46:53;;;;;;;10.17;9.87;;;22.30;73.50;;;;;;5051335;28;20447;-57
2023/01/02 05:49:20;;;;;;;9.70;9.50;;;22.30;73.40;;;;;;5051229;28;20990;-56
2023/01/02 05:51:47;;;;;;;10.30;10.00;;;22.30;73.40;;;;;;5051505;28;20453;-53
2023/01/02 05:54:14;;;;;;;10.20;9.80;;;22.30;73.40;;;;;;5051572;28;20436;-57
2023/01/02 05:56:40;;;;;;;10.93;10.63;;;22.30;73.40;;;;;;5051495;28;20966;-57
2023/01/02 05:59:09;;;;;;;10.03;9.83;;;22.30;73.30;;;;;;5051293;28;20460;-56
2023/01/02 06:01:36;;;;;;;10.90;10.60;;;22.30;73.30;;;;;;5051551;28;20447;-54
2023/01/02 06:04:03;;;;;;;9.70;9.50;;;22.30;73.20;;;;;;5050966;28;20484;-56
2023/01/02 06:06:32;;;;;;;10.13;9.93;;;22.30;73.20;;;;;;5050090;28;20446;-52
2023/01/02 06:08:59;;;;;;;10.90;10.60;;;22.30;74.20;;;;;;5048750;28;20836;-56
2023/01/02 06:11:26;;;;;;;11.80;11.40;;;22.40;73.20;;;;;;5050134;28;20456;-56
2023/01/02 06:13:53;;;;;;;10.80;10.50;;;22.40;73.10;;;;;;5051449;28;20531;-57
2023/01/02 06:16:22;;;;;;;11.43;11.00;;;22.40;72.80;;;;;;5051350;28;21021;-55
2023/01/02 06:18:50;;;;;;;11.60;11.30;;;22.40;73.00;;;;;;5050391;28;20471;-56
2023/01/02 06:21:18;;;;;;;11.10;10.80;;;22.40;72.80;;;;;;5051292;28;20450;-55
2023/01/02 06:23:46;;;;;;;10.57;10.27;;;22.40;73.80;;;;;;5051152;28;20451;-57
2023/01/02 06:26:14;;;;;;;10.60;10.30;;;22.40;73.10;;;;;;5051308;28;20454;-56
2023/01/02 06:28:42;;;;;;;10.87;10.57;;;22.40;73.20;;;;;;5051197;28;20472;-52
2023/01/02 06:31:10;;;;;;;10.60;10.30;;;22.40;73.20;;;;;;5051085;28;20447;-56
2023/01/02 06:33:38;;;;;;;11.20;10.80;;;22.40;73.20;;;;;;5050831;28;20452;-56
2023/01/02 06:36:08;;;;;;;11.80;11.50;;;22.40;73.20;;;;;;5051205;28;20440;-58
2023/01/02 06:38:35;;;;;;;10.53;10.23;;;22.40;73.30;;;;;;5051125;28;20460;-56
2023/01/02 06:41:02;;;;;;;11.07;10.77;;;22.40;73.50;;;;;;5052178;28;20444;-57
2023/01/02 06:43:30;;;;;;;10.63;10.33;;;22.50;74.20;;;;;;5054913;28;20450;-56
2023/01/02 06:45:58;;;;;;;10.90;10.60;;;22.40;73.20;;;;;;5054785;28;20486;-53
2023/01/02 06:48:25;;;;;;;10.83;10.43;;;22.50;73.30;;;;;;5054689;28;20471;-61
2023/01/02 06:50:53;;;;;;;11.00;10.70;;;22.50;74.50;;;;;;5054378;28;20447;-51
2023/01/02 06:53:20;;;;;;;11.00;10.70;;;22.60;74.30;;;;;;5054803;28;20440;-53
2023/01/02 06:55:51;;;;;;;10.03;9.73;;;22.70;74.70;;;;;;5054980;28;20523;-58
2023/01/02 06:58:18;;;;;;;10.40;10.00;;;22.80;74.00;;;;;;5054620;28;20450;-58
2023/01/02 07:00:45;;;;;;;10.40;10.20;;;22.90;72.90;;;;;;5054326;28;20448;-59
2023/01/02 07:03:12;;;;;;;10.00;9.70;;;22.90;72.40;;;;;;5054724;28;20446;-59
2023/01/02 07:05:39;;;;;;;9.90;9.70;;;22.90;72.20;;;;;;5054443;28;20476;-60
2023/01/02 07:08:07;;;;;;;10.63;10.30;;;23.00;72.10;;;;;;5054461;28;20450;-59
2023/01/02 07:10:34;;;;;;;10.60;10.30;;;23.00;71.80;;;;;;5054547;28;20746;-59
2023/01/02 07:13:01;;;;;;;10.13;9.83;;;23.00;72.20;;;;;;5054446;28;20458;-58
2023/01/02 07:15:28;;;;;;;10.23;9.90;;;23.10;71.30;;;;;;5054259;28;20531;-60
2023/01/02 07:17:55;;;;;;;9.90;9.60;;;23.10;71.10;;;;;;5053611;28;20448;-59
2023/01/02 07:20:22;;;;;;;10.30;10.00;;;23.20;71.10;;;;;;5054094;28;20472;-59
2023/01/02 07:22:49;;;;;;;10.00;9.80;;;23.20;71.00;;;;;;5054358;28;20440;-60
2023/01/02 07:25:18;;;;;;;10.40;10.10;;;23.30;70.70;;;;;;5054317;28;20486;-61
2023/01/02 07:27:45;;;;;;;10.63;10.33;;;23.30;70.70;;;;;;5054320;28;20534;-60
2023/01/02 07:30:12;;;;;;;9.93;9.63;;;23.20;70.30;;;;;;5053558;28;21049;-60
2023/01/02 07:32:39;;;;;;;10.73;10.43;;;23.20;70.30;;;;;;5054179;28;20448;-58
2023/01/02 07:35:08;;;;;;;10.63;10.23;;;23.20;70.50;;;;;;5054078;28;20511;-60
2023/01/02 07:37:34;;;;;;;10.90;10.60;;;23.20;70.50;;;;;;5054104;28;20471;-60
2023/01/02 07:40:01;;;;;;;9.97;9.73;;;23.20;70.60;;;;;;5053665;28;20563;-59
2023/01/02 07:42:29;;;;;;;10.40;10.10;;;23.20;70.40;;;;;;5053929;28;20445;-60
2023/01/02 07:44:56;;;;;;;11.00;10.60;;;23.20;70.30;;;;;;5053698;28;20570;-60
2023/01/02 07:47:23;;;;;;;14.57;13.50;;;23.10;70.30;;;;;;5053479;28;20515;-63
2023/01/02 07:49:50;;;;;;;13.73;13.03;;;23.20;72.10;;;;;;5053505;28;20551;-63
2023/01/02 07:52:16;;;;;;;20.43;15.47;;;23.20;74.00;;;;;;5053579;28;20449;-60
2023/01/02 07:54:43;;;;;;;15.90;14.43;;;23.20;76.70;;;;;;5053466;28;20886;-59
2023/01/02 07:57:10;;;;;;;14.97;13.73;;;23.30;76.70;;;;;;5053606;28;20441;-59
2023/01/02 07:59:38;;;;;;;17.27;15.30;;;23.30;77.50;;;;;;5053220;28;21049;-58
2023/01/02 08:02:05;;;;;;;14.17;13.27;;;23.30;78.60;;;;;;5053493;28;20531;-60
2023/01/02 08:04:32;;;;;;;14.77;13.60;;;23.40;78.80;;;;;;5053466;28;21017;-55
2023/01/02 08:06:58;;;;;;;15.40;13.60;;;23.40;82.00;;;;;;5053563;28;20535;-56
2023/01/02 08:09:25;;;;;;;14.60;13.20;;;23.40;78.30;;;;;;5053221;28;20470;-52
2023/01/02 08:11:52;;;;;;;14.57;13.67;;;23.50;78.30;;;;;;5053343;28;20441;-55
2023/01/02 08:14:19;;;;;;;15.30;14.00;;;23.60;78.20;;;;;;5053284;28;20467;-57
2023/01/02 08:16:47;;;;;;;15.10;13.70;;;23.60;80.10;;;;;;5052717;28;20527;-55
2023/01/02 08:19:14;;;;;;;14.47;13.57;;;23.70;79.90;;;;;;5052833;28;20502;-52
2023/01/02 08:21:41;;;;;;;14.13;13.10;;;23.70;79.80;;;;;;5053147;28;20471;-57
2023/01/02 08:24:08;;;;;;;15.00;13.90;;;23.80;79.40;;;;;;5053172;28;20543;-52
2023/01/02 08:26:35;;;;;;;15.23;13.80;;;23.80;78.60;;;;;;5053019;28;20490;-55
2023/01/02 08:29:02;;;;;;;14.30;13.50;;;23.90;77.90;;;;;;5052721;28;20543;-52
2023/01/02 08:31:29;;;;;;;13.30;12.60;;;23.90;77.30;;;;;;5052400;28;20449;-53
2023/01/02 08:33:57;;;;;;;16.87;15.33;;;23.90;76.80;;;;;;5053032;28;20440;-52
2023/01/02 08:36:24;;;;;;;15.17;14.13;;;23.90;76.30;;;;;;5052865;28;20532;-52
2023/01/02 08:38:50;;;;;;;14.17;13.30;;;23.90;75.90;;;;;;5052640;28;20472;-53
2023/01/02 08:41:30;;;;;;;13.95;13.02;;;23.90;75.80;;;;;;5052744;28;20531;-56
2023/01/02 08:43:57;;;;;;;14.40;13.30;;;23.90;75.80;;;;;;5052537;28;20308;-55
2023/01/02 08:46:24;;;;;;;14.83;13.93;;;24.00;75.60;;;;;;5052615;28;20480;-53
2023/01/02 08:48:51;;;;;;;14.93;14.03;;;24.00;76.30;;;;;;5052496;28;20825;-53
2023/01/02 08:51:19;;;;;;;14.50;13.30;;;23.90;75.40;;;;;;5052619;28;20447;-56
2023/01/02 08:53:46;;;;;;;14.13;13.37;;;24.00;76.30;;;;;;5052592;28;20448;-56
2023/01/02 08:56:20;;;;;;;14.50;13.33;;;24.00;75.10;;;;;;5052503;28;20996;-53
2023/01/02 08:58:50;;;;;;;14.80;14.00;;;24.00;75.00;;;;;;5052240;28;20555;-58
2023/01/02 09:01:17;;;;;;;13.50;13.00;;;24.00;76.00;;;;;;5051342;28;20711;-54
2023/01/02 09:03:44;;;;;;;14.03;13.40;;;24.00;74.70;;;;;;5051683;28;20510;-58
2023/01/02 09:06:11;;;;;;;14.27;13.27;;;24.10;74.50;;;;;;5052881;28;20567;-59
2023/01/02 09:08:39;;;;;;;14.43;13.40;;;24.10;74.00;;;;;;5052979;28;20555;-54
2023/01/02 09:11:13;;;;;;;15.43;14.27;;;24.10;74.90;;;;;;5052090;28;20444;-56
2023/01/02 09:13:40;;;;;;;13.53;12.90;;;24.10;74.00;;;;;;5052364;28;20448;-57
2023/01/02 09:16:09;;;;;;;14.07;13.37;;;24.10;74.20;;;;;;5051880;28;20536;-53
2023/01/02 09:18:36;;;;;;;14.30;13.53;;;24.20;73.30;;;;;;5052016;28;20561;-56
2023/01/02 09:21:03;;;;;;;14.30;13.50;;;24.20;73.60;;;;;;5051794;28;20440;-61
2023/01/02 09:23:31;;;;;;;14.50;13.60;;;24.20;73.00;;;;;;5052429;28;20436;-57
2023/01/02 09:26:00;;;;;;;14.90;14.10;;;24.20;72.30;;;;;;5052516;28;20476;-58
2023/01/02 09:28:27;;;;;;;13.63;12.97;;;24.10;71.90;;;;;;5052194;28;20464;-58
2023/01/02 09:30:54;;;;;;;13.63;13.03;;;24.10;72.20;;;;;;5051867;28;20447;-58
2023/01/02 09:33:21;;;;;;;14.67;13.97;;;24.10;72.40;;;;;;5052580;28;20797;-56
2023/01/02 09:35:48;;;;;;;14.33;13.53;;;24.10;72.30;;;;;;5052336;28;20444;-58
2023/01/02 09:38:15;;;;;;;14.67;13.97;;;24.00;72.20;;;;;;5052134;28;20440;-55
2023/01/02 09:40:47;;;;;;;13.80;13.00;;;24.00;71.90;;;;;;5052249;28;20450;-57
2023/01/02 09:43:19;;;;;;;14.37;13.40;;;24.00;72.20;;;;;;5052546;28;20811;-56
2023/01/02 09:45:49;;;;;;;13.90;13.27;;;24.00;72.10;;;;;;5052393;28;20567;-57
2023/01/02 09:48:19;;;;;;;14.67;13.93;;;24.00;72.20;;;;;;5051948;28;20800;-57
2023/01/02 09:50:47;;;;;;;14.10;13.30;;;24.00;72.20;;;;;;5052234;28;20444;-60
2023/01/02 09:53:15;;;;;;;13.57;12.77;;;24.00;73.60;;;;;;5052343;28;20938;-55
2023/01/02 09:55:50;;;;;;;13.40;12.70;;;24.10;73.60;;;;;;5052201;28;20448;-57
2023/01/02 09:58:27;;;;;;;12.87;12.17;;;24.10;73.60;;;;;;5051779;28;20444;-54
2023/01/02 10:00:54;;;;;;;12.67;12.00;;;24.10;72.80;;;;;;5051996;28;20444;-56
2023/01/02 10:03:29;;;;;;;14.00;12.77;;;24.10;72.40;;;;;;5051588;28;20440;-57
2023/01/02 10:06:09;;;;;;;12.90;12.40;;;24.20;72.20;;;;;;5051767;28;20486;-60
2023/01/02 10:08:46;;;;;;;13.00;12.20;;;24.20;72.90;;;;;;5051743;28;20498;-57
2023/01/02 10:11:40;;;;;;;13.83;13.27;;;24.20;72.10;;;;;;5052071;28;20476;-59
2023/01/02 10:14:17;;;;;;;13.80;13.07;;;24.20;71.80;;;;;;5044332;28;20448;-60
2023/01/02 10:16:47;;;;;;;12.43;11.90;;;24.20;71.50;;;;;;5054816;28;20816;-58
2023/01/02 10:19:20;;;;;;;13.00;12.47;;;24.30;71.10;;;;;;5055654;28;20493;-59
2023/01/02 10:21:49;;;;;;;12.40;12.00;;;24.30;70.60;;;;;;5056235;28;20807;-59
2023/01/02 10:24:20;;;;;;;13.27;12.70;;;24.30;70.20;;;;;;5055969;28;20448;-60
2023/01/02 10:26:52;;;;;;;12.57;11.97;;;24.40;70.10;;;;;;5055925;28;20485;-59
2023/01/02 10:29:28;;;;;;;12.83;12.40;;;24.40;69.60;;;;;;5055585;28;20822;-60
2023/01/02 10:31:59;;;;;;;12.20;11.63;;;24.50;69.40;;;;;;5055852;28;20538;-58
2023/01/02 10:34:37;;;;;;;13.00;12.40;;;24.50;69.00;;;;;;5055956;28;20459;-59
2023/01/02 10:37:11;;;;;;;13.77;13.07;;;24.50;68.70;;;;;;5055797;28;20446;-59
2023/01/02 10:39:38;;;;;;;13.07;12.37;;;24.60;68.40;;;;;;5055365;28;20473;-58
2023/01/02 10:42:05;;;;;;;13.43;12.80;;;24.60;68.30;;;;;;5055655;28;20443;-60
2023/01/02 10:44:37;;;;;;;12.60;12.03;;;24.50;68.10;;;;;;5055779;28;20455;-60
2023/01/02 10:47:15;;;;;;;12.50;12.00;;;24.50;68.10;;;;;;5055844;28;20490;-60
2023/01/02 10:49:43;;;;;;;12.70;12.30;;;24.40;68.00;;;;;;5055560;28;20472;-60
2023/01/02 10:52:15;;;;;;;16.83;16.17;;;24.40;68.10;;;;;;5053924;28;20440;-65
2023/01/02 10:54:52;;;;;;;14.53;13.90;;;24.30;68.30;;;;;;5048712;28;20448;-59
2023/01/02 10:57:24;;;;;;;14.00;13.40;;;24.20;69.90;;;;;;5054717;28;20436;-59
2023/01/02 11:00:00;;;;;;;13.20;12.80;;;24.10;71.00;;;;;;5055021;28;20468;-58
2023/01/02 11:02:31;;;;;;;13.80;13.20;;;24.10;71.90;;;;;;5055040;28;20456;-54
2023/01/02 11:05:02;;;;;;;13.40;12.90;;;24.10;71.50;;;;;;5055479;28;20526;-61
2023/01/02 11:07:35;;;;;;;13.90;13.33;;;24.10;72.00;;;;;;5055528;28;20491;-63
2023/01/02 11:10:02;;;;;;;13.20;12.70;;;24.00;72.30;;;;;;5055167;28;20464;-64
2023/01/02 11:12:31;;;;;;;13.37;12.97;;;24.10;72.30;;;;;;5055180;28;20971;-55
2023/01/02 11:15:14;;;;;;;13.90;13.50;;;24.10;72.70;;;;;;5054963;28;20938;-55
2023/01/02 11:17:43;;;;;;;14.40;13.70;;;24.00;73.00;;;;;;5054870;28;20479;-57
2023/01/02 11:20:29;;;;;;;14.00;13.50;;;24.00;73.30;;;;;;5055506;28;20477;-60
2023/01/02 11:22:57;;;;;;;13.47;12.97;;;23.90;73.30;;;;;;5054959;28;20446;-58
2023/01/02 11:25:28;;;;;;;13.30;12.53;;;24.00;73.60;;;;;;5054271;28;20436;-59
2023/01/02 11:27:58;;;;;;;14.13;13.47;;;23.90;73.60;;;;;;5053759;28;20535;-58
2023/01/02 11:30:35;;;;;;;13.63;13.03;;;23.90;73.60;;;;;;5053691;28;20467;-56
2023/01/02 11:33:07;;;;;;;17.60;16.70;;;23.90;73.70;;;;;;5054175;28;20965;-55
2023/01/02 11:35:45;;;;;;;17.40;16.53;;;24.00;73.40;;;;;;5054050;28;21127;-55
2023/01/02 11:38:14;;;;;;;16.40;15.80;;;24.00;73.20;;;;;;5054651;28;20940;-56
2023/01/02 11:40:52;;;;;;;15.90;15.40;;;24.10;73.20;;;;;;5053875;28;20444;-54
2023/01/02 11:46:19;;;;;;;16.50;15.97;;;24.00;73.00;;;;;;5054246;28;20499;-56
2023/01/02 11:48:46;;;;;;;16.03;15.50;;;24.00;73.10;;;;;;5053790;28;20522;-57
2023/01/02 11:51:16;;;;;;;16.50;15.90;;;24.00;73.00;;;;;;5054375;28;20446;-55
2023/01/02 11:53:46;;;;;;;16.17;15.60;;;24.00;73.00;;;;;;5054697;28;20444;-53
2023/01/02 11:56:17;;;;;;;16.37;15.77;;;23.90;72.90;;;;;;5054355;28;20965;-55
2023/01/02 11:58:51;;;;;;;16.67;16.07;;;23.90;72.90;;;;;;5054051;28;20460;-59
2023/01/02 12:01:29;;;;;;;15.80;15.30;;;23.90;73.10;;;;;;5055378;28;20968;-60
2023/01/02 12:03:57;;;;;;;16.20;15.60;;;23.90;72.80;;;;;;5056564;28;20444;-58
2023/01/02 12:06:30;;;;;;;16.50;15.90;;;23.90;72.70;;;;;;5061327;28;20480;-58
2023/01/02 12:09:05;;;;;;;16.10;15.60;;;23.90;72.90;;;;;;5057390;28;20464;-58
2023/01/02 12:11:42;;;;;;;15.03;14.53;;;23.90;73.00;;;;;;5059536;28;20506;-57
2023/01/02 12:14:14;;;;;;;16.80;16.10;;;23.90;72.60;;;;;;5060747;28;20873;-57
2023/01/02 12:16:53;;;;;;;16.03;15.53;;;23.90;72.60;;;;;;5060089;28;20468;-58
2023/01/02 12:19:38;;;;;;;16.20;15.70;;;23.90;72.70;;;;;;5059026;28;20480;-57
2023/01/02 12:22:20;;;;;;;16.03;15.43;;;23.90;72.80;;;;;;5054985;28;20463;-61
2023/01/02 12:25:01;;;;;;;16.03;15.43;;;23.80;72.80;;;;;;5056086;28;20440;-57
2023/01/02 12:27:36;;;;;;;16.57;15.90;;;23.80;72.90;;;;;;5054401;28;20518;-55
2023/01/02 12:30:15;;;;;;;16.17;15.67;;;23.70;72.80;;;;;;5053924;28;20987;-55
2023/01/02 12:33:08;;;;;;;16.57;15.97;;;23.70;72.90;;;;;;5054111;28;20573;-54
2023/01/02 12:35:48;;;;;;;15.90;15.40;;;23.80;73.10;;;;;;5053387;28;20976;-62
2023/01/02 12:38:23;;;;;;;16.63;16.00;;;23.70;72.90;;;;;;5051803;28;20447;-54
2023/01/02 12:41:00;;;;;;;16.23;15.73;;;23.70;73.00;;;;;;5052874;28;20530;-57
2023/01/02 12:43:44;;;;;;;16.57;15.87;;;23.70;73.00;;;;;;5053201;28;20491;-58
2023/01/02 12:46:22;;;;;;;17.00;16.40;;;23.70;73.00;;;;;;5052732;28;20570;-60
2023/01/02 12:49:05;;;;;;;16.30;15.80;;;23.70;72.20;;;;;;5052571;28;20985;-54
2023/01/02 12:51:39;;;;;;;16.10;15.60;;;23.70;72.70;;;;;;5052504;28;20528;-58
2023/01/02 12:54:27;;;;;;;16.17;15.57;;;23.80;72.80;;;;;;5052546;28;20502;-59
2023/01/02 12:57:01;;;;;;;16.30;15.70;;;23.70;72.60;;;;;;5052539;28;20523;-56